createdAt,value
2022-12-19T00:02:15.328Z,46.10
2022-12-19T00:04:35.273Z,46.05
2022-12-19T00:06:58.128Z,44.15
2022-12-19T00:09:17.729Z,43.63
2022-12-19T00:11:38.356Z,42.85
2022-12-19T00:13:58.378Z,36.20
2022-12-19T00:16:23.467Z,38.97
2022-12-19T00:18:44.894Z,37.35
2022-12-19T00:21:05.726Z,38.65
2022-12-19T00:23:27.830Z,38.75
2022-12-19T00:25:47.855Z,38.33
2022-12-19T00:28:08.485Z,37.42
2022-12-19T00:30:28.657Z,35.17
2022-12-19T00:32:48.958Z,33.75
2022-12-19T00:35:09.055Z,30.48
2022-12-19T00:37:28.847Z,32.45
2022-12-19T00:39:48.579Z,34.30
2022-12-19T00:42:08.180Z,32.53
2022-12-19T00:44:28.232Z,38.38
2022-12-19T00:46:52.278Z,43.00
2022-12-19T00:49:14.699Z,38.45
2022-12-19T00:51:36.815Z,41.08
2022-12-19T00:53:57.479Z,37.05
2022-12-19T00:56:21.343Z,34.23
2022-12-19T00:58:46.622Z,35.33
2022-12-19T01:01:14.752Z,43.22
2022-12-19T01:03:34.943Z,64.80
2022-12-19T01:05:54.814Z,63.70
2022-12-19T01:08:15.248Z,68.18
2022-12-19T01:10:47.944Z,67.75
2022-12-19T01:13:07.913Z,55.97
2022-12-19T01:15:27.597Z,61.60
2022-12-19T01:17:48.467Z,54.17
2022-12-19T01:20:09.054Z,54.53
2022-12-19T01:22:29.209Z,54.22
2022-12-19T01:24:49.043Z,51.78
2022-12-19T01:27:08.832Z,53.35
2022-12-19T01:29:28.539Z,54.33
2022-12-19T01:31:48.361Z,47.53
2022-12-19T01:34:08.481Z,52.55
2022-12-19T01:36:28.495Z,50.25
2022-12-19T01:38:48.399Z,45.15
2022-12-19T01:41:08.513Z,43.97
2022-12-19T01:43:53.496Z,45.33
2022-12-19T01:46:14.673Z,44.00
2022-12-19T01:48:39.353Z,40.00
2022-12-19T01:51:03.387Z,39.47
2022-12-19T01:53:28.177Z,42.03
2022-12-19T01:55:48.135Z,44.05
2022-12-19T01:58:09.244Z,37.05
2022-12-19T02:00:29.462Z,37.78
2022-12-19T02:02:56.463Z,37.58
2022-12-19T02:05:16.309Z,39.83
2022-12-19T02:07:37.759Z,39.35
2022-12-19T02:09:57.900Z,39.75
2022-12-19T02:12:17.875Z,37.38
2022-12-19T02:14:37.737Z,34.80
2022-12-19T02:17:20.099Z,32.72
2022-12-19T02:20:30.996Z,37.53
2022-12-19T02:22:51.075Z,37.53
2022-12-19T02:25:35.305Z,36.75
2022-12-19T02:28:40.257Z,38.22
2022-12-19T02:31:23.831Z,42.05
2022-12-19T02:33:50.124Z,45.25
2022-12-19T02:36:26.788Z,41.22
2022-12-19T02:39:14.090Z,44.95
2022-12-19T02:41:42.527Z,43.33
2022-12-19T02:44:03.467Z,49.63
2022-12-19T02:46:24.345Z,44.28
2022-12-19T02:48:44.375Z,45.13
2022-12-19T02:51:05.274Z,39.67
2022-12-19T02:53:25.163Z,43.15
2022-12-19T02:56:06.078Z,42.58
2022-12-19T02:58:56.560Z,36.88
2022-12-19T03:01:38.761Z,39.58
2022-12-19T03:04:12.024Z,42.53
2022-12-19T03:07:01.501Z,38.05
2022-12-19T03:09:42.199Z,39.80
2022-12-19T03:12:10.682Z,38.55
2022-12-19T03:14:35.406Z,44.75
2022-12-19T03:17:33.639Z,48.08
2022-12-19T03:19:54.399Z,43.90
2022-12-19T03:22:14.177Z,44.10
2022-12-19T03:24:34.409Z,50.83
2022-12-19T03:26:57.194Z,53.33
2022-12-19T03:29:25.781Z,48.55
2022-12-19T03:31:47.120Z,44.90
2022-12-19T03:34:27.382Z,39.78
2022-12-19T03:36:53.285Z,40.63
2022-12-19T03:39:14.870Z,44.67
2022-12-19T03:41:54.449Z,42.83
2022-12-19T03:44:16.492Z,38.40
2022-12-19T03:46:45.346Z,40.13
2022-12-19T03:49:05.178Z,41.28
2022-12-19T03:51:59.509Z,40.65
2022-12-19T03:54:27.086Z,34.33
2022-12-19T03:57:03.840Z,34.65
2022-12-19T03:59:40.815Z,35.03
2022-12-19T04:02:02.666Z,36.92
2022-12-19T04:04:23.835Z,38.38
2022-12-19T04:06:45.747Z,45.50
2022-12-19T04:09:06.925Z,53.90
2022-12-19T04:11:33.687Z,47.65
2022-12-19T04:13:59.876Z,47.38
2022-12-19T04:16:34.757Z,43.45
2022-12-19T04:19:20.305Z,35.70
2022-12-19T04:21:48.658Z,39.95
2022-12-19T04:24:23.356Z,41.95
2022-12-19T04:26:47.095Z,40.03
2022-12-19T04:29:08.371Z,37.70
2022-12-19T04:31:28.454Z,41.08
2022-12-19T04:33:48.635Z,40.88
2022-12-19T04:36:10.309Z,36.33
2022-12-19T04:38:30.035Z,37.67
2022-12-19T04:40:49.800Z,35.50
2022-12-19T04:43:09.548Z,38.38
2022-12-19T04:45:29.428Z,38.00
2022-12-19T04:47:49.531Z,40.92
2022-12-19T04:50:10.257Z,40.83
2022-12-19T04:52:30.284Z,39.45
2022-12-19T04:54:50.285Z,40.17
2022-12-19T04:57:10.173Z,39.08
2022-12-19T04:59:29.843Z,36.28
2022-12-19T05:01:50.064Z,41.33
2022-12-19T05:04:10.142Z,35.67
2022-12-19T05:06:30.416Z,40.10
2022-12-19T05:08:50.708Z,39.83
2022-12-19T05:11:17.499Z,38.33
2022-12-19T05:13:40.011Z,38.90
2022-12-19T05:16:05.527Z,36.67
2022-12-19T05:18:25.906Z,33.70
2022-12-19T05:20:48.357Z,39.03
2022-12-19T05:23:16.208Z,37.83
2022-12-19T05:25:37.107Z,38.80
2022-12-19T05:27:56.718Z,48.85
2022-12-19T05:30:16.509Z,35.20
2022-12-19T05:32:36.649Z,38.25
2022-12-19T05:34:56.888Z,44.40
2022-12-19T05:37:16.893Z,39.50
2022-12-19T05:39:36.905Z,38.47
2022-12-19T05:41:56.782Z,35.05
2022-12-19T05:44:16.820Z,36.92
2022-12-19T05:46:36.633Z,35.97
2022-12-19T05:48:56.620Z,35.03
2022-12-19T05:51:17.062Z,43.25
2022-12-19T05:53:38.443Z,46.83
2022-12-19T05:56:10.108Z,42.88
2022-12-19T05:58:30.524Z,44.42
2022-12-19T06:00:50.485Z,45.90
2022-12-19T06:03:10.423Z,33.97
2022-12-19T06:05:30.785Z,33.08
2022-12-19T06:07:50.705Z,36.97
2022-12-19T06:10:10.864Z,40.70
2022-12-19T06:12:30.689Z,36.47
2022-12-19T06:14:50.357Z,39.60
2022-12-19T06:17:10.137Z,48.63
2022-12-19T06:19:30.654Z,44.78
2022-12-19T06:21:50.632Z,51.63
2022-12-19T06:24:10.335Z,46.90
2022-12-19T06:26:31.129Z,48.70
2022-12-19T06:28:52.082Z,49.45
2022-12-19T06:31:12.682Z,45.50
2022-12-19T06:33:33.403Z,47.00
2022-12-19T06:36:01.807Z,47.38
2022-12-19T06:38:21.594Z,48.08
2022-12-19T06:41:02.823Z,53.45
2022-12-19T06:43:25.576Z,40.80
2022-12-19T06:45:45.789Z,41.13
2022-12-19T06:48:06.052Z,39.10
2022-12-19T06:50:26.087Z,34.15
2022-12-19T06:52:45.889Z,36.22
2022-12-19T06:55:07.552Z,33.22
2022-12-19T06:57:27.836Z,30.60
2022-12-19T06:59:47.896Z,34.28
2022-12-19T07:02:18.462Z,35.83
2022-12-19T07:04:46.647Z,31.75
2022-12-19T07:07:07.650Z,35.00
2022-12-19T07:09:28.945Z,29.52
2022-12-19T07:11:49.023Z,33.30
2022-12-19T07:14:09.133Z,34.65
2022-12-19T07:16:31.125Z,39.03
2022-12-19T07:18:51.202Z,40.83
2022-12-19T07:21:11.623Z,41.00
2022-12-19T07:23:32.095Z,38.38
2022-12-19T07:25:52.169Z,45.40
2022-12-19T07:28:12.874Z,39.55
2022-12-19T07:30:32.775Z,39.13
2022-12-19T07:32:52.715Z,35.28
2022-12-19T07:35:13.904Z,33.15
2022-12-19T07:37:34.011Z,28.10
2022-12-19T07:39:54.298Z,35.92
2022-12-19T07:42:14.447Z,37.17
2022-12-19T07:44:34.971Z,36.55
2022-12-19T07:46:54.962Z,35.22
2022-12-19T07:49:19.666Z,38.47
2022-12-19T07:51:42.464Z,34.17
2022-12-19T07:54:04.415Z,35.95
2022-12-19T07:56:25.679Z,37.47
2022-12-19T07:58:45.740Z,54.35
2022-12-19T08:01:05.819Z,46.40
2022-12-19T08:03:27.946Z,40.17
2022-12-19T08:05:47.733Z,47.15
2022-12-19T08:08:08.197Z,49.10
2022-12-19T08:10:30.410Z,50.20
2022-12-19T08:12:50.324Z,56.55
2022-12-19T08:15:13.893Z,46.10
2022-12-19T08:17:34.569Z,39.42
2022-12-19T08:19:54.565Z,51.05
2022-12-19T08:22:14.127Z,41.63
2022-12-19T08:24:33.835Z,45.75
2022-12-19T08:26:53.719Z,39.28
2022-12-19T08:29:13.362Z,49.85
2022-12-19T08:31:33.567Z,53.50
2022-12-19T08:33:54.988Z,44.42
2022-12-19T08:36:19.581Z,54.50
2022-12-19T08:38:40.000Z,56.88
2022-12-19T08:41:00.324Z,50.28
2022-12-19T08:43:20.827Z,47.95
2022-12-19T08:45:40.659Z,36.97
2022-12-19T08:48:00.356Z,39.15
2022-12-19T08:50:20.167Z,36.53
2022-12-19T08:52:40.028Z,34.50
2022-12-19T08:55:00.071Z,40.20
2022-12-19T08:57:19.934Z,49.05
2022-12-19T08:59:40.024Z,34.30
2022-12-19T09:02:01.186Z,33.53
2022-12-19T09:05:57.291Z,40.05
2022-12-19T09:07:02.203Z,35.83
2022-12-19T09:09:21.801Z,49.75
2022-12-19T09:11:46.679Z,44.92
2022-12-19T09:14:08.090Z,37.92
2022-12-19T09:16:28.219Z,40.95
2022-12-19T09:18:50.863Z,28.58
2022-12-19T09:21:11.073Z,32.55
2022-12-19T09:23:31.272Z,32.28
2022-12-19T09:25:51.026Z,31.63
2022-12-19T09:28:27.698Z,29.83
2022-12-19T09:30:55.728Z,31.55
2022-12-19T09:33:15.684Z,40.05
2022-12-19T09:35:36.685Z,44.20
2022-12-19T09:38:00.011Z,30.08
2022-12-19T09:40:20.796Z,34.22
2022-12-19T09:43:17.715Z,39.25
2022-12-19T09:45:42.453Z,39.17
2022-12-19T09:48:02.855Z,32.00
2022-12-19T09:50:29.117Z,23.88
2022-12-19T09:52:58.214Z,20.50
2022-12-19T09:55:30.935Z,35.67
2022-12-19T09:58:12.951Z,29.85
2022-12-19T10:00:43.964Z,34.50
2022-12-19T10:03:23.003Z,35.60
2022-12-19T10:06:27.745Z,17.40
2022-12-19T10:08:38.000Z,23.48
2022-12-19T10:12:39.794Z,19.27
2022-12-19T10:14:37.606Z,21.63
2022-12-19T10:17:24.134Z,17.73
2022-12-19T10:19:56.882Z,18.27
2022-12-19T10:22:50.289Z,16.05
2022-12-19T10:25:23.068Z,19.33
2022-12-19T10:28:07.992Z,16.45
2022-12-19T10:30:35.882Z,21.15
2022-12-19T10:33:21.998Z,16.42
2022-12-19T10:35:44.805Z,17.30
2022-12-19T10:38:28.460Z,13.02
2022-12-19T10:40:53.044Z,18.40
2022-12-19T10:43:44.364Z,16.38
2022-12-19T10:46:39.222Z,17.80
2022-12-19T10:48:59.393Z,18.70
2022-12-19T10:51:24.845Z,15.85
2022-12-19T10:53:56.417Z,14.43
2022-12-19T10:56:33.222Z,13.60
2022-12-19T10:58:58.350Z,12.77
2022-12-19T11:01:35.001Z,13.07
2022-12-19T11:04:17.967Z,16.75
2022-12-19T11:06:51.361Z,14.95
2022-12-19T11:09:18.372Z,16.45
2022-12-19T11:15:48.017Z,15.48
2022-12-19T11:19:16.047Z,16.30
2022-12-19T11:24:07.199Z,16.38
2022-12-19T11:29:16.697Z,17.85
2022-12-19T11:29:43.948Z,15.00
2022-12-19T11:30:09.736Z,15.45
2022-12-19T11:30:45.509Z,15.27
2022-12-19T11:34:04.414Z,21.48
2022-12-19T11:36:48.879Z,19.85
2022-12-19T11:39:39.738Z,22.65
2022-12-19T11:42:21.210Z,23.92
2022-12-19T11:44:47.366Z,20.23
2022-12-19T11:47:35.202Z,26.92
2022-12-19T11:50:13.863Z,24.67
2022-12-19T11:53:22.073Z,25.30
2022-12-19T11:56:00.034Z,22.50
2022-12-19T11:58:23.788Z,29.02
2022-12-19T12:00:56.178Z,27.88
2022-12-19T12:03:38.336Z,21.10
2022-12-19T12:06:04.114Z,22.33
2022-12-19T12:10:46.056Z,16.38
2022-12-19T12:18:55.861Z,18.52
2022-12-19T12:24:31.575Z,17.40
2022-12-19T12:31:01.793Z,14.32
2022-12-19T12:31:21.097Z,8.68
2022-12-19T12:31:54.116Z,14.80
2022-12-19T12:31:56.213Z,14.02
2022-12-19T12:32:04.667Z,12.63
2022-12-19T12:35:54.427Z,12.48
2022-12-19T12:37:15.846Z,14.90
2022-12-19T12:41:03.201Z,22.08
2022-12-19T12:43:44.459Z,16.33
2022-12-19T12:46:07.720Z,12.20
2022-12-19T12:50:58.222Z,10.13
2022-12-19T12:55:42.233Z,9.18
2022-12-19T12:58:01.701Z,10.77
2022-12-19T13:00:27.523Z,9.38
2022-12-19T13:02:57.187Z,11.15
2022-12-19T13:05:35.849Z,17.20
2022-12-19T13:07:55.904Z,22.52
2022-12-19T13:10:29.051Z,25.80
2022-12-19T13:15:28.428Z,23.92
2022-12-19T13:17:48.105Z,21.65
2022-12-19T13:20:09.110Z,23.75
2022-12-19T13:22:28.749Z,26.02
2022-12-19T13:24:56.785Z,30.15
2022-12-19T13:27:19.678Z,20.20
2022-12-19T13:30:11.804Z,18.75
2022-12-19T13:32:40.557Z,16.55
2022-12-19T13:35:35.771Z,17.52
2022-12-19T13:39:59.745Z,16.48
2022-12-19T13:40:52.152Z,16.25
2022-12-19T13:43:42.749Z,12.43
2022-12-19T13:46:25.660Z,13.35
2022-12-19T13:48:48.727Z,14.57
2022-12-19T13:53:30.683Z,10.23
2022-12-19T13:55:55.027Z,10.90
2022-12-19T13:58:39.571Z,12.15
2022-12-19T14:01:08.269Z,12.88
2022-12-19T14:03:44.731Z,13.10
2022-12-19T14:06:20.670Z,12.98
2022-12-19T14:08:40.717Z,12.63
2022-12-19T14:11:37.133Z,11.38
2022-12-19T14:14:19.140Z,12.80
2022-12-19T14:16:44.713Z,20.90
2022-12-19T14:19:23.898Z,13.18
2022-12-19T14:22:10.103Z,16.08
2022-12-19T14:24:24.424Z,15.82
2022-12-19T14:28:26.301Z,15.70
2022-12-19T14:30:26.671Z,16.60
2022-12-19T14:33:44.502Z,17.52
2022-12-19T14:36:05.899Z,17.75
2022-12-19T14:41:00.201Z,17.25
2022-12-19T14:43:59.897Z,24.08
2022-12-19T14:52:35.100Z,17.98
2022-12-19T14:54:13.314Z,15.98
2022-12-19T14:54:29.541Z,18.35
2022-12-19T14:57:04.155Z,30.83
2022-12-19T14:59:30.510Z,21.60
2022-12-19T15:01:55.309Z,26.65
2022-12-19T15:04:51.241Z,22.63
2022-12-19T15:07:08.494Z,16.90
2022-12-19T15:11:06.149Z,16.35
2022-12-19T15:14:03.995Z,16.92
2022-12-19T15:15:20.004Z,19.63
2022-12-19T15:17:44.967Z,18.20
2022-12-19T15:20:06.547Z,31.63
2022-12-19T15:22:26.118Z,29.90
2022-12-19T15:24:47.258Z,43.33
2022-12-19T15:27:16.819Z,46.20
2022-12-19T15:29:36.387Z,30.50
2022-12-19T15:32:20.319Z,29.08
2022-12-19T15:34:50.638Z,38.08
2022-12-19T15:37:13.420Z,35.28
2022-12-19T15:39:32.947Z,45.28
2022-12-19T15:41:54.139Z,41.38
2022-12-19T15:44:29.773Z,36.53
2022-12-19T15:46:50.119Z,36.08
2022-12-19T15:49:18.160Z,30.70
2022-12-19T15:51:38.164Z,12.25
2022-12-19T15:54:22.251Z,16.77
2022-12-19T15:56:46.061Z,28.10
2022-12-19T15:59:20.884Z,27.17
2022-12-19T16:01:40.994Z,31.63
2022-12-19T16:04:02.711Z,27.48
2022-12-19T16:06:22.764Z,23.58
2022-12-19T16:08:43.015Z,22.30
2022-12-19T16:11:03.033Z,28.90
2022-12-19T16:13:25.425Z,24.38
2022-12-19T16:15:46.311Z,22.00
2022-12-19T16:18:06.431Z,37.40
2022-12-19T16:20:31.985Z,31.95
2022-12-19T16:22:52.441Z,44.70
2022-12-19T16:25:12.910Z,57.90
2022-12-19T16:27:34.856Z,47.95
2022-12-19T16:29:57.664Z,42.17
2022-12-19T16:32:18.686Z,53.97
2022-12-19T16:34:38.698Z,53.03
2022-12-19T16:36:58.315Z,44.55
2022-12-19T16:39:17.925Z,41.33
2022-12-19T16:41:42.571Z,50.72
2022-12-19T16:44:04.066Z,54.20
2022-12-19T16:46:30.021Z,39.38
2022-12-19T16:48:50.079Z,54.20
2022-12-19T16:51:22.786Z,26.98
2022-12-19T16:53:42.424Z,22.85
2022-12-19T16:56:02.932Z,28.08
2022-12-19T16:58:25.604Z,40.70
2022-12-19T17:00:45.883Z,26.02
2022-12-19T17:03:19.893Z,27.40
2022-12-19T17:05:39.671Z,54.22
2022-12-19T17:08:00.081Z,35.67
2022-12-19T17:10:26.341Z,41.58
2022-12-19T17:12:46.592Z,44.35
2022-12-19T17:15:16.490Z,56.33
2022-12-19T17:17:36.334Z,57.55
2022-12-19T17:19:55.916Z,71.47
2022-12-19T17:22:17.404Z,69.03
2022-12-19T17:24:37.436Z,69.47
2022-12-19T17:26:57.035Z,55.25
2022-12-19T17:29:16.708Z,53.42
2022-12-19T17:31:39.045Z,54.13
2022-12-19T17:33:59.070Z,54.93
2022-12-19T17:36:24.909Z,55.47
2022-12-19T17:38:45.933Z,55.38
2022-12-19T17:41:05.740Z,48.33
2022-12-19T17:43:25.487Z,52.80
2022-12-19T17:45:46.727Z,48.65
2022-12-19T17:48:19.672Z,46.22
2022-12-19T17:50:40.895Z,36.65
2022-12-19T17:53:00.838Z,48.10
2022-12-19T17:55:21.799Z,49.35
2022-12-19T17:57:41.882Z,46.80
2022-12-19T18:00:03.446Z,45.88
2022-12-19T18:02:25.730Z,39.80
2022-12-19T18:04:45.930Z,54.97
2022-12-19T18:07:12.888Z,62.10
2022-12-19T18:09:32.773Z,70.07
2022-12-19T18:11:52.985Z,67.15
2022-12-19T18:14:12.794Z,66.32
2022-12-19T18:16:32.778Z,56.83
2022-12-19T18:18:52.871Z,32.65
2022-12-19T18:21:16.211Z,53.45
2022-12-19T18:23:36.364Z,76.13
2022-12-19T18:26:01.267Z,67.88
2022-12-19T18:28:22.442Z,51.05
2022-12-19T18:30:44.217Z,54.33
2022-12-19T18:33:05.748Z,62.85
2022-12-19T18:35:34.510Z,74.35
2022-12-19T18:37:58.101Z,54.88
2022-12-19T18:40:25.957Z,52.90
2022-12-19T18:42:49.425Z,40.17
2022-12-19T18:45:21.668Z,50.55
2022-12-19T18:47:46.852Z,35.55
2022-12-19T18:50:23.953Z,43.90
2022-12-19T18:52:44.121Z,41.65
2022-12-19T18:55:15.404Z,45.45
2022-12-19T18:57:35.522Z,77.13
2022-12-19T18:59:55.469Z,90.28
2022-12-19T19:02:34.056Z,57.83
2022-12-19T19:04:55.084Z,51.33
2022-12-19T19:07:14.780Z,47.15
2022-12-19T19:09:34.689Z,50.45
2022-12-19T19:11:54.903Z,55.55
2022-12-19T19:14:14.797Z,50.45
2022-12-19T19:16:35.969Z,41.55
2022-12-19T19:18:57.792Z,40.10
2022-12-19T19:21:18.834Z,42.25
2022-12-19T19:24:00.229Z,46.30
2022-12-19T19:26:20.262Z,45.70
2022-12-19T19:28:40.466Z,46.55
2022-12-19T19:31:01.184Z,45.17
2022-12-19T19:33:25.172Z,48.15
2022-12-19T19:35:47.575Z,50.58
2022-12-19T19:38:08.721Z,48.42
2022-12-19T19:40:29.019Z,48.47
2022-12-19T19:42:48.789Z,44.10
2022-12-19T19:45:09.867Z,45.75
2022-12-19T19:47:31.720Z,36.25
2022-12-19T19:49:51.963Z,26.50
2022-12-19T19:52:11.925Z,29.00
2022-12-19T19:54:34.034Z,32.95
2022-12-19T19:56:54.754Z,34.83
2022-12-19T19:59:14.387Z,31.73
2022-12-19T20:01:34.117Z,36.13
2022-12-19T20:03:54.529Z,36.38
2022-12-19T20:06:14.927Z,36.17
2022-12-19T20:08:39.581Z,40.08
2022-12-19T20:11:01.094Z,47.97
2022-12-19T20:13:21.095Z,46.13
2022-12-19T20:15:47.728Z,66.78
2022-12-19T20:18:09.546Z,60.78
2022-12-19T20:20:29.145Z,52.58
2022-12-19T20:22:48.708Z,51.60
2022-12-19T20:25:08.528Z,57.47
2022-12-19T20:27:28.349Z,61.70
2022-12-19T20:29:47.915Z,61.47
2022-12-19T20:32:07.566Z,58.20
2022-12-19T20:34:27.219Z,53.05
2022-12-19T20:36:46.911Z,56.33
2022-12-19T20:39:06.498Z,59.75
2022-12-19T20:41:26.935Z,65.10
2022-12-19T20:43:47.602Z,84.03
2022-12-19T20:46:16.776Z,63.78
2022-12-19T20:48:37.704Z,65.25
2022-12-19T20:50:58.785Z,38.75
2022-12-19T20:53:19.537Z,64.90
2022-12-19T20:55:39.488Z,61.85
2022-12-19T20:57:59.594Z,45.75
2022-12-19T21:00:19.853Z,43.95
2022-12-19T21:03:17.369Z,39.13
2022-12-19T21:05:20.187Z,37.90
2022-12-19T21:07:39.982Z,46.35
2022-12-19T21:09:59.378Z,45.10
2022-12-19T21:12:19.575Z,44.15
2022-12-19T21:14:39.249Z,46.15
2022-12-19T21:16:58.889Z,41.15
2022-12-19T21:19:19.087Z,47.42
2022-12-19T21:21:39.248Z,42.40
2022-12-19T21:24:00.482Z,45.15
2022-12-19T21:26:22.420Z,43.47
2022-12-19T21:28:42.813Z,49.67
2022-12-19T21:31:12.415Z,47.50
2022-12-19T21:33:33.009Z,47.72
2022-12-19T21:35:53.032Z,44.22
2022-12-19T21:38:12.523Z,41.20
2022-12-19T21:40:35.470Z,42.58
2022-12-19T21:42:55.454Z,49.30
2022-12-19T21:45:15.376Z,51.85
2022-12-19T21:47:38.542Z,61.67
2022-12-19T21:49:58.115Z,60.70
2022-12-19T21:52:18.303Z,58.83
2022-12-19T21:54:39.500Z,69.55
2022-12-19T21:56:59.611Z,64.38
2022-12-19T21:59:19.214Z,57.90
2022-12-19T22:01:42.049Z,57.95
2022-12-19T22:04:05.817Z,50.97
2022-12-19T22:06:29.797Z,47.28
2022-12-19T22:08:49.780Z,47.38
2022-12-19T22:11:15.322Z,48.78
2022-12-19T22:13:35.103Z,47.15
2022-12-19T22:16:00.346Z,51.03
2022-12-19T22:18:20.153Z,44.22
2022-12-19T22:20:43.894Z,43.13
2022-12-19T22:23:08.194Z,48.33
2022-12-19T22:25:31.532Z,52.05
2022-12-19T22:27:54.155Z,41.60
2022-12-19T22:32:34.987Z,33.97
2022-12-19T22:34:55.036Z,36.47
2022-12-19T22:37:14.903Z,43.28
2022-12-19T22:39:34.647Z,46.13
2022-12-19T22:41:54.828Z,49.90
2022-12-19T22:44:23.349Z,50.53
2022-12-19T22:46:43.450Z,64.65
2022-12-19T22:49:08.099Z,65.90
2022-12-19T22:51:31.261Z,51.75
2022-12-19T22:53:50.985Z,40.05
2022-12-19T22:56:13.291Z,32.47
2022-12-19T22:58:37.832Z,44.47
2022-12-19T23:00:58.040Z,38.92
2022-12-19T23:03:18.561Z,41.55
2022-12-19T23:05:38.838Z,36.72
2022-12-19T23:07:58.537Z,37.83
2022-12-19T23:10:18.333Z,40.38
2022-12-19T23:12:38.511Z,43.80
2022-12-19T23:14:58.722Z,43.60
2022-12-19T23:17:18.851Z,48.97
2022-12-19T23:19:38.437Z,46.22
2022-12-19T23:21:59.498Z,48.35
2022-12-19T23:24:20.269Z,48.55
2022-12-19T23:26:40.734Z,49.90
2022-12-19T23:29:09.660Z,45.92
2022-12-19T23:31:30.206Z,45.42
2022-12-19T23:33:50.975Z,46.05
2022-12-19T23:36:10.669Z,45.53
2022-12-19T23:38:30.601Z,40.35
2022-12-19T23:40:50.388Z,42.15
2022-12-19T23:43:10.418Z,38.22
2022-12-19T23:45:30.934Z,34.28
2022-12-19T23:47:51.132Z,38.53
2022-12-19T23:50:11.548Z,41.17
2022-12-19T23:52:31.687Z,39.67
2022-12-19T23:54:51.574Z,39.33
2022-12-19T23:57:11.631Z,43.67
2022-12-19T23:59:31.503Z,38.70
